Time;durP1;ratioP1;P1;durP2;ratioP2;P2;SDS_P1;SDS_P2;PMS_P1;PMS_P2;Temp;Humidity;BMP_temperature;BMP_pressure;BME280_temperature;BME280_humidity;BME280_pressure;Samples;Min_cycle;Max_cycle;Signal;HPM_P1;HPM_P2
2023/10/12 00:02:13;;;;;;;6.77;4.10;;;;;;;;;;4972617;28;20506;-72
2023/10/12 00:04:43;;;;;;;11.17;4.73;;;;;;;;;;4968737;28;20180;-72
2023/10/12 00:09:37;;;;;;;10.30;4.00;;;;;;;;;;4972255;28;20167;-72
2023/10/12 00:12:07;;;;;;;6.27;4.17;;;;;;;;;;4968588;28;20215;-72
2023/10/12 00:14:33;;;;;;;4.60;3.63;;;;;;;;;;4977152;28;20189;-72
2023/10/12 00:16:59;;;;;;;6.10;3.57;;;;;;;;;;4970353;28;20208;-72
2023/10/12 00:19:24;;;;;;;8.27;4.17;;;;;;;;;;4972119;28;20229;-72
2023/10/12 00:22:09;;;;;;;8.53;4.70;;;;;;;;;;4965463;28;20405;-72
2023/10/12 00:24:34;;;;;;;5.43;4.27;;;;;;;;;;4964597;28;20192;-72
2023/10/12 00:26:59;;;;;;;7.77;4.13;;;;;;;;;;4972220;28;20184;-72
2023/10/12 00:29:25;;;;;;;7.57;4.10;;;;;;;;;;4972059;28;20247;-72
2023/10/12 00:31:50;;;;;;;6.90;4.83;;;;;;;;;;4967081;28;20175;-73
2023/10/12 00:34:16;;;;;;;9.37;3.83;;;;;;;;;;4972215;28;20231;-72
2023/10/12 00:36:41;;;;;;;5.63;3.80;;;;;;;;;;4973715;28;20173;-72
2023/10/12 00:39:10;;;;;;;5.47;3.77;;;;;;;;;;4969950;28;20218;-73
2023/10/12 00:41:37;;;;;;;7.00;3.90;;;;;;;;;;4971852;28;20199;-72
2023/10/12 00:44:12;;;;;;;6.43;4.27;;;;;;;;;;4969476;28;20178;-72
2023/10/12 00:51:54;;;;;;;6.80;3.77;;;;;;;;;;4971920;28;20279;-72
2023/10/12 00:54:40;;;;;;;8.70;4.07;;;;;;;;;;4972507;28;20296;-72
2023/10/12 00:57:06;;;;;;;6.07;3.70;;;;;;;;;;4969169;28;20274;-72
2023/10/12 00:59:34;;;;;;;6.37;4.37;;;;;;;;;;4966651;28;20273;-72
2023/10/12 01:02:08;;;;;;;8.43;4.50;;;;;;;;;;4971573;28;20216;-72
2023/10/12 01:04:34;;;;;;;6.63;4.13;;;;;;;;;;4974068;28;20173;-72
2023/10/12 01:06:59;;;;;;;5.60;4.10;;;;;;;;;;4971525;28;20196;-72
2023/10/12 01:09:39;;;;;;;10.63;4.37;;;;;;;;;;4970820;28;20201;-72
2023/10/12 01:12:06;;;;;;;7.53;4.43;;;;;;;;;;4968291;28;20188;-72
2023/10/12 01:14:31;;;;;;;10.47;4.40;;;;;;;;;;4965203;28;20174;-72
2023/10/12 01:17:04;;;;;;;13.50;5.30;;;;;;;;;;4968110;28;20179;-72
2023/10/12 01:19:33;;;;;;;8.00;5.10;;;;;;;;;;4966983;28;20177;-72
2023/10/12 01:22:11;;;;;;;5.90;4.40;;;;;;;;;;4971247;28;20173;-71
2023/10/12 01:24:43;;;;;;;7.17;4.10;;;;;;;;;;4970843;28;20207;-73
2023/10/12 01:27:12;;;;;;;7.07;4.63;;;;;;;;;;4971252;28;20206;-73
2023/10/12 01:29:37;;;;;;;8.40;4.40;;;;;;;;;;4980166;28;20243;-72
2023/10/12 01:34:36;;;;;;;6.20;4.40;;;;;;;;;;4971002;28;20184;-72
2023/10/12 01:37:21;;;;;;;7.00;4.60;;;;;;;;;;4968943;28;20169;-72
2023/10/12 01:39:56;;;;;;;8.80;3.87;;;;;;;;;;4972352;28;20247;-72
2023/10/12 01:42:21;;;;;;;7.77;4.40;;;;;;;;;;4963626;28;20207;-72
2023/10/12 01:44:47;;;;;;;5.83;4.13;;;;;;;;;;4973682;28;20207;-72
2023/10/12 01:47:13;;;;;;;7.30;4.33;;;;;;;;;;4974943;28;20181;-73
2023/10/12 01:49:39;;;;;;;5.07;3.73;;;;;;;;;;4970828;28;20221;-72
2023/10/12 01:52:08;;;;;;;6.00;4.40;;;;;;;;;;4971714;28;20192;-72
2023/10/12 01:54:33;;;;;;;5.37;4.13;;;;;;;;;;4972020;28;20177;-72
2023/10/12 01:56:58;;;;;;;8.57;4.33;;;;;;;;;;4967568;28;20173;-72
2023/10/12 01:59:25;;;;;;;7.87;4.70;;;;;;;;;;4970163;28;20177;-71
2023/10/12 02:01:54;;;;;;;7.13;4.60;;;;;;;;;;4970395;28;20200;-72
2023/10/12 02:04:21;;;;;;;5.57;3.80;;;;;;;;;;4971182;28;20251;-72
2023/10/12 02:06:46;;;;;;;11.27;4.50;;;;;;;;;;4970329;28;20193;-72
2023/10/12 02:09:15;;;;;;;6.50;3.97;;;;;;;;;;4976884;28;20278;-72
2023/10/12 02:11:44;;;;;;;5.93;4.13;;;;;;;;;;4970077;28;20188;-73
2023/10/12 02:14:11;;;;;;;5.50;3.93;;;;;;;;;;4972323;28;20184;-72
2023/10/12 02:16:39;;;;;;;7.23;4.00;;;;;;;;;;4969367;28;20194;-72
2023/10/12 02:19:05;;;;;;;7.23;4.23;;;;;;;;;;4967802;28;20283;-72
2023/10/12 02:21:33;;;;;;;7.13;3.93;;;;;;;;;;4971315;28;20255;-72
2023/10/12 02:24:11;;;;;;;5.50;3.60;;;;;;;;;;4971254;28;20189;-72
2023/10/12 02:34:17;;;;;;;9.73;4.47;;;;;;;;;;4965628;28;20176;-71
2023/10/12 02:36:59;;;;;;;5.93;4.50;;;;;;;;;;4965169;28;20503;-72
2023/10/12 02:39:26;;;;;;;7.03;4.23;;;;;;;;;;4969037;28;20216;-72
2023/10/12 02:42:03;;;;;;;5.30;3.70;;;;;;;;;;4970457;28;20188;-72
2023/10/12 02:44:33;;;;;;;49.30;45.37;;;;;;;;;;4966299;28;20187;-72
2023/10/12 02:47:04;;;;;;;6.73;4.03;;;;;;;;;;4965872;28;20180;-71
2023/10/12 02:49:35;;;;;;;7.60;3.63;;;;;;;;;;4968086;28;20207;-73
2023/10/12 02:52:05;;;;;;;5.33;4.20;;;;;;;;;;4963963;28;20176;-72
2023/10/12 02:54:32;;;;;;;10.03;4.87;;;;;;;;;;4971080;28;20190;-72
2023/10/12 02:56:58;;;;;;;6.23;3.93;;;;;;;;;;4963407;28;20280;-72
2023/10/12 02:59:25;;;;;;;7.97;3.97;;;;;;;;;;4967876;28;20253;-72
2023/10/12 03:02:07;;;;;;;6.10;4.27;;;;;;;;;;4970359;28;20191;-73
2023/10/12 03:04:38;;;;;;;6.30;4.23;;;;;;;;;;4969151;28;20186;-72
2023/10/12 03:07:10;;;;;;;8.23;5.03;;;;;;;;;;4968387;28;20189;-72
2023/10/12 03:09:43;;;;;;;9.70;4.60;;;;;;;;;;4967682;28;20260;-72
2023/10/12 03:12:09;;;;;;;7.63;4.40;;;;;;;;;;4970476;28;20240;-72
2023/10/12 03:14:35;;;;;;;8.47;4.17;;;;;;;;;;4970096;28;20208;-72
2023/10/12 03:17:04;;;;;;;6.80;4.33;;;;;;;;;;4970055;28;20208;-72
2023/10/12 03:19:35;;;;;;;6.17;4.23;;;;;;;;;;4970333;28;20181;-72
2023/10/12 03:22:03;;;;;;;6.03;4.10;;;;;;;;;;4971145;28;20189;-71
2023/10/12 03:24:38;;;;;;;6.13;4.30;;;;;;;;;;4971773;28;20186;-72
2023/10/12 03:29:29;;;;;;;9.70;4.27;;;;;;;;;;4971744;28;20255;-72
2023/10/12 03:31:56;;;;;;;10.03;4.90;;;;;;;;;;4965112;28;20195;-72
2023/10/12 03:34:53;;;;;;;8.00;4.33;;;;;;;;;;4972197;28;20169;-72
2023/10/12 03:37:18;;;;;;;7.27;3.90;;;;;;;;;;4965017;28;20197;-72
2023/10/12 03:44:54;;;;;;;4.93;3.97;;;;;;;;;;4974237;28;20177;-72
2023/10/12 03:52:19;;;;;;;8.57;4.00;;;;;;;;;;4977732;28;20228;-72
2023/10/12 03:55:32;;;;;;;8.00;4.50;;;;;;;;;;4973282;28;20237;-73
2023/10/12 03:57:38;;;;;;;6.17;4.10;;;;;;;;;;4971485;28;20193;-72
2023/10/12 04:08:18;;;;;;;4.63;4.20;;;;;;;;;;4971930;28;20227;-73
2023/10/12 04:18:33;;;;;;;9.93;4.33;;;;;;;;;;4971591;28;20187;-72
2023/10/12 04:20:58;;;;;;;7.07;4.27;;;;;;;;;;4968120;28;20195;-73
2023/10/12 04:28:36;;;;;;;5.77;4.40;;;;;;;;;;4979184;28;20212;-72
2023/10/12 04:33:43;;;;;;;5.10;3.63;;;;;;;;;;4970957;28;20183;-72
2023/10/12 04:43:52;;;;;;;7.43;4.20;;;;;;;;;;4970849;28;20210;-73
2023/10/12 04:48:49;;;;;;;6.40;3.93;;;;;;;;;;4973413;28;20203;-73
2023/10/12 04:51:21;;;;;;;8.93;4.40;;;;;;;;;;4973472;28;20223;-72
2023/10/12 04:54:06;;;;;;;9.37;4.60;;;;;;;;;;4972626;28;20227;-72
2023/10/12 04:56:36;;;;;;;12.73;5.13;;;;;;;;;;4973942;28;20234;-72
2023/10/12 04:59:14;;;;;;;9.17;4.90;;;;;;;;;;4967646;28;20262;-72
2023/10/12 05:05:14;;;;;;;9.87;4.10;;;;;;;;;;4978412;28;20190;-72
2023/10/12 05:09:49;;;;;;;8.53;4.03;;;;;;;;;;4972450;28;20240;-71
2023/10/12 05:12:15;;;;;;;6.73;4.20;;;;;;;;;;4968975;28;20187;-72
2023/10/12 05:14:40;;;;;;;11.17;3.90;;;;;;;;;;4973417;28;20201;-72
2023/10/12 05:17:08;;;;;;;8.80;4.80;;;;;;;;;;4971954;28;20251;-72
2023/10/12 05:19:33;;;;;;;6.90;3.97;;;;;;;;;;4972440;28;20186;-72
2023/10/12 05:21:58;;;;;;;11.77;4.83;;;;;;;;;;4970500;28;20189;-73
2023/10/12 05:24:24;;;;;;;7.43;4.33;;;;;;;;;;4971783;28;20207;-72
2023/10/12 05:26:54;;;;;;;11.87;4.90;;;;;;;;;;4972095;28;20236;-72
2023/10/12 05:32:06;;;;;;;7.80;4.13;;;;;;;;;;4971457;28;20185;-73
2023/10/12 05:37:24;;;;;;;6.63;4.30;;;;;;;;;;4964804;28;20188;-73
2023/10/12 05:39:55;;;;;;;9.20;4.73;;;;;;;;;;4966528;28;20318;-73
2023/10/12 05:42:22;;;;;;;8.17;4.73;;;;;;;;;;4972107;28;20179;-72
2023/10/12 05:44:48;;;;;;;7.20;4.33;;;;;;;;;;4971436;28;20184;-73
2023/10/12 05:47:14;;;;;;;7.73;4.70;;;;;;;;;;4973937;28;20192;-73
2023/10/12 05:49:40;;;;;;;7.60;4.03;;;;;;;;;;4970681;28;20208;-72
2023/10/12 05:52:07;;;;;;;5.30;4.07;;;;;;;;;;4968051;28;20185;-73
2023/10/12 05:54:32;;;;;;;8.47;4.03;;;;;;;;;;4972496;28;20303;-72
2023/10/12 05:57:03;;;;;;;7.97;4.60;;;;;;;;;;4977478;28;20274;-72
2023/10/12 05:59:29;;;;;;;9.27;4.53;;;;;;;;;;4973905;28;20269;-72
2023/10/12 06:01:54;;;;;;;18.53;6.23;;;;;;;;;;4971363;28;20240;-73
2023/10/12 06:04:19;;;;;;;8.57;4.83;;;;;;;;;;4969899;28;20211;-69
2023/10/12 06:06:46;;;;;;;7.37;4.50;;;;;;;;;;4971114;28;20189;-69
2023/10/12 06:09:20;;;;;;;9.50;4.07;;;;;;;;;;4971399;28;20231;-69
2023/10/12 06:11:46;;;;;;;5.57;4.37;;;;;;;;;;4970912;28;20267;-69
2023/10/12 06:14:15;;;;;;;5.73;4.30;;;;;;;;;;4970900;28;20263;-69
2023/10/12 06:16:40;;;;;;;7.10;4.70;;;;;;;;;;4973388;28;20267;-69
2023/10/12 06:19:22;;;;;;;6.17;3.97;;;;;;;;;;4974641;28;20264;-68
2023/10/12 06:21:50;;;;;;;5.47;4.43;;;;;;;;;;4965382;28;20173;-69
2023/10/12 06:24:21;;;;;;;7.27;4.93;;;;;;;;;;4969707;28;20168;-69
2023/10/12 06:26:47;;;;;;;6.33;4.00;;;;;;;;;;4971744;28;20189;-68
2023/10/12 06:29:24;;;;;;;6.50;4.40;;;;;;;;;;4974823;28;20204;-69
2023/10/12 06:31:52;;;;;;;9.00;5.63;;;;;;;;;;4979553;28;20208;-68
2023/10/12 06:34:19;;;;;;;12.70;4.73;;;;;;;;;;4966550;28;20251;-68
2023/10/12 06:36:44;;;;;;;5.13;4.20;;;;;;;;;;4970018;28;20174;-69
2023/10/12 06:44:25;;;;;;;7.63;4.27;;;;;;;;;;4969059;28;20245;-69
2023/10/12 06:46:53;;;;;;;8.87;5.00;;;;;;;;;;4970974;28;20213;-68
2023/10/12 06:49:22;;;;;;;9.73;4.73;;;;;;;;;;4975093;28;20201;-68
2023/10/12 06:51:54;;;;;;;7.40;5.03;;;;;;;;;;4967151;28;20262;-68
2023/10/12 06:59:52;;;;;;;8.37;4.83;;;;;;;;;;4965845;28;20182;-69
2023/10/12 07:02:22;;;;;;;9.07;4.70;;;;;;;;;;4963072;28;20187;-69
2023/10/12 07:04:53;;;;;;;6.73;4.10;;;;;;;;;;4967504;28;20292;-68
2023/10/12 07:07:19;;;;;;;13.03;4.23;;;;;;;;;;4971453;28;20260;-69
2023/10/12 07:09:46;;;;;;;10.73;4.57;;;;;;;;;;4968704;28;20255;-69
2023/10/12 07:12:12;;;;;;;10.03;4.67;;;;;;;;;;4968896;28;20178;-68
2023/10/12 07:14:39;;;;;;;7.30;4.40;;;;;;;;;;4969817;28;20276;-68
2023/10/12 07:17:04;;;;;;;7.53;5.33;;;;;;;;;;4969775;28;20182;-69
2023/10/12 07:19:30;;;;;;;8.40;4.87;;;;;;;;;;4966146;28;20260;-68
2023/10/12 07:21:55;;;;;;;10.70;5.17;;;;;;;;;;4965250;28;20185;-70
2023/10/12 07:24:23;;;;;;;8.33;5.53;;;;;;;;;;4968248;28;20177;-69
2023/10/12 07:26:49;;;;;;;5.03;4.30;;;;;;;;;;4961482;28;20185;-68
2023/10/12 07:29:19;;;;;;;7.60;4.63;;;;;;;;;;4968257;28;20198;-68
2023/10/12 07:31:48;;;;;;;7.23;5.23;;;;;;;;;;4969774;28;20232;-69
2023/10/12 07:34:18;;;;;;;9.50;4.70;;;;;;;;;;4961516;28;20193;-69
2023/10/12 07:36:53;;;;;;;8.63;5.50;;;;;;;;;;4964933;28;20169;-69
2023/10/12 07:39:23;;;;;;;9.73;4.63;;;;;;;;;;4964371;28;20267;-68
2023/10/12 07:42:00;;;;;;;8.43;4.47;;;;;;;;;;4967968;28;20186;-69
2023/10/12 07:44:36;;;;;;;9.90;4.73;;;;;;;;;;4966793;28;20197;-69
2023/10/12 07:47:03;;;;;;;9.30;4.73;;;;;;;;;;4969097;28;20242;-68
2023/10/12 07:49:37;;;;;;;10.63;4.70;;;;;;;;;;4978787;28;20197;-69
2023/10/12 07:52:09;;;;;;;5.97;4.20;;;;;;;;;;4966904;28;20189;-69
2023/10/12 07:54:47;;;;;;;6.13;4.77;;;;;;;;;;4971576;28;20176;-69
2023/10/12 07:57:13;;;;;;;8.47;4.50;;;;;;;;;;4967671;28;20188;-69
2023/10/12 07:59:38;;;;;;;7.03;5.00;;;;;;;;;;4973088;28;20177;-69
2023/10/12 08:02:08;;;;;;;7.43;4.53;;;;;;;;;;4976198;28;20189;-69
2023/10/12 08:04:33;;;;;;;10.20;4.90;;;;;;;;;;4972056;28;20181;-69
2023/10/12 08:07:00;;;;;;;9.60;4.60;;;;;;;;;;4971906;28;20178;-69
2023/10/12 08:11:51;;;;;;;8.40;4.07;;;;;;;;;;4978609;28;20187;-69
2023/10/12 08:17:25;;;;;;;6.73;4.27;;;;;;;;;;4972684;28;20172;-69
2023/10/12 08:19:39;;;;;;;7.33;4.20;;;;;;;;;;4972717;28;20212;-69
2023/10/12 08:22:09;;;;;;;6.77;3.97;;;;;;;;;;4970640;28;20268;-69
2023/10/12 08:24:36;;;;;;;6.97;4.70;;;;;;;;;;4969559;28;20170;-69
2023/10/12 08:27:05;;;;;;;7.63;4.70;;;;;;;;;;4973158;28;20207;-69
2023/10/12 08:39:38;;;;;;;7.37;4.50;;;;;;;;;;4967633;28;20187;-69
2023/10/12 08:44:50;;;;;;;9.73;5.17;;;;;;;;;;4977197;28;20177;-69
2023/10/12 08:47:26;;;;;;;7.70;4.63;;;;;;;;;;4972650;28;20177;-69
2023/10/12 08:52:30;;;;;;;11.20;4.83;;;;;;;;;;4970298;28;20295;-69
2023/10/12 08:55:11;;;;;;;9.27;4.57;;;;;;;;;;4971163;28;20182;-68
2023/10/12 08:57:55;;;;;;;6.30;4.50;;;;;;;;;;4970696;28;20177;-69
2023/10/12 09:00:39;;;;;;;17.07;5.10;;;;;;;;;;4985675;28;20174;-69
2023/10/12 09:05:46;;;;;;;6.63;4.53;;;;;;;;;;4970216;28;20275;-69
2023/10/12 09:13:27;;;;;;;7.00;4.97;;;;;;;;;;4971913;28;20184;-69
2023/10/12 09:15:56;;;;;;;8.17;4.63;;;;;;;;;;4970537;28;20178;-69
2023/10/12 09:18:24;;;;;;;8.00;5.50;;;;;;;;;;4986463;28;20190;-69
2023/10/12 09:28:42;;;;;;;10.50;5.07;;;;;;;;;;4968511;28;20228;-68
2023/10/12 09:31:09;;;;;;;10.20;4.90;;;;;;;;;;4970822;28;20179;-69
2023/10/12 09:36:19;;;;;;;12.17;5.13;;;;;;;;;;4971577;28;20206;-68
2023/10/12 09:38:44;;;;;;;80.73;15.53;;;;;;;;;;4963350;28;20285;-68
2023/10/12 09:41:14;;;;;;;9.30;4.40;;;;;;;;;;4970370;28;20183;-69
2023/10/12 09:43:41;;;;;;;10.13;4.93;;;;;;;;;;4966179;28;20174;-68
2023/10/12 09:46:09;;;;;;;9.17;5.47;;;;;;;;;;4970924;28;20198;-68
2023/10/12 09:48:38;;;;;;;13.93;5.33;;;;;;;;;;4965181;28;20210;-68
2023/10/12 09:51:07;;;;;;;6.47;4.40;;;;;;;;;;4966516;28;20335;-69
2023/10/12 09:53:40;;;;;;;6.47;4.80;;;;;;;;;;4963496;28;20255;-68
2023/10/12 09:56:11;;;;;;;7.73;4.70;;;;;;;;;;4971846;28;20187;-69
2023/10/12 09:58:45;;;;;;;7.57;4.40;;;;;;;;;;4968529;28;20188;-68
2023/10/12 10:01:22;;;;;;;8.27;4.73;;;;;;;;;;4971440;28;20215;-69
2023/10/12 10:03:47;;;;;;;6.17;4.43;;;;;;;;;;4969766;28;20195;-68
2023/10/12 10:06:28;;;;;;;10.77;5.83;;;;;;;;;;4969176;28;20180;-68
2023/10/12 10:09:09;;;;;;;8.00;4.87;;;;;;;;;;4969932;28;20207;-68
2023/10/12 10:11:35;;;;;;;11.20;5.20;;;;;;;;;;4968821;28;20168;-68
2023/10/12 10:14:03;;;;;;;10.00;5.37;;;;;;;;;;4968464;28;20198;-69
2023/10/12 10:16:37;;;;;;;9.73;5.20;;;;;;;;;;4969083;28;20181;-69
2023/10/12 10:19:13;;;;;;;6.87;4.23;;;;;;;;;;4967174;28;20522;-68
2023/10/12 10:21:49;;;;;;;6.20;5.13;;;;;;;;;;4969651;28;20181;-68
2023/10/12 10:24:19;;;;;;;23.70;7.30;;;;;;;;;;4965356;28;20184;-69
2023/10/12 10:26:47;;;;;;;14.07;5.73;;;;;;;;;;4970364;28;20188;-69
2023/10/12 10:29:17;;;;;;;9.10;5.53;;;;;;;;;;4959146;28;20215;-70
2023/10/12 10:31:44;;;;;;;8.50;4.80;;;;;;;;;;4966127;28;20224;-69
2023/10/12 10:34:12;;;;;;;8.63;5.30;;;;;;;;;;4964636;28;20187;-69
2023/10/12 10:36:37;;;;;;;14.13;4.30;;;;;;;;;;4968704;28;20184;-69
2023/10/12 10:39:28;;;;;;;6.50;4.10;;;;;;;;;;4969619;28;20188;-69
2023/10/12 10:41:54;;;;;;;7.23;4.57;;;;;;;;;;4970207;28;20226;-69
2023/10/12 10:44:23;;;;;;;5.97;4.90;;;;;;;;;;4970435;28;20212;-69
2023/10/12 10:46:54;;;;;;;9.73;4.97;;;;;;;;;;4970836;28;20476;-69
2023/10/12 10:49:19;;;;;;;5.30;4.27;;;;;;;;;;4968648;28;20214;-70
2023/10/12 10:52:02;;;;;;;11.33;4.60;;;;;;;;;;4960796;28;20284;-68
2023/10/12 10:54:27;;;;;;;7.77;4.20;;;;;;;;;;4965358;28;20201;-69
2023/10/12 10:56:54;;;;;;;9.93;4.50;;;;;;;;;;4964575;28;20191;-69
2023/10/12 10:59:19;;;;;;;8.83;3.90;;;;;;;;;;4968570;28;20212;-69
2023/10/12 11:01:52;;;;;;;7.17;4.57;;;;;;;;;;4968825;28;20230;-69
2023/10/12 11:09:31;;;;;;;5.43;3.87;;;;;;;;;;4951787;28;20229;-69
2023/10/12 11:11:58;;;;;;;8.37;4.80;;;;;;;;;;4950732;29;20228;-70
2023/10/12 11:14:24;;;;;;;5.27;4.13;;;;;;;;;;4950461;28;20177;-69
2023/10/12 11:16:51;;;;;;;6.93;3.87;;;;;;;;;;4957292;28;20191;-69
2023/10/12 11:19:19;;;;;;;6.30;4.53;;;;;;;;;;4952214;28;20181;-70
2023/10/12 11:21:57;;;;;;;7.47;4.97;;;;;;;;;;4934905;29;20191;-69
2023/10/12 11:24:24;;;;;;;7.50;4.57;;;;;;;;;;4948757;29;20200;-69
2023/10/12 11:26:52;;;;;;;9.98;4.90;;;;;;;;;;4951053;29;20474;-69
2023/10/12 11:29:18;;;;;;;7.25;4.55;;;;;;;;;;4933640;29;20220;-70
2023/10/12 11:31:46;;;;;;;6.27;4.43;;;;;;;;;;4950897;29;20212;-69
2023/10/12 11:34:23;;;;;;;6.63;4.18;;;;;;;;;;4953613;28;20201;-69
2023/10/12 11:36:57;;;;;;;17.37;4.87;;;;;;;;;;4956619;28;20226;-69
2023/10/12 11:39:28;;;;;;;12.60;5.47;;;;;;;;;;4956598;28;20195;-69
2023/10/12 11:42:12;;;;;;;9.52;4.65;;;;;;;;;;4941041;29;20182;-69
2023/10/12 11:44:42;;;;;;;5.97;4.60;;;;;;;;;;4953852;29;20240;-69
2023/10/12 11:47:07;;;;;;;13.73;4.60;;;;;;;;;;4958188;28;20185;-69
2023/10/12 11:49:58;;;;;;;7.50;4.10;;;;;;;;;;4954166;28;20202;-69
2023/10/12 11:52:30;;;;;;;6.55;4.03;;;;;;;;;;4957169;28;20176;-70
2023/10/12 11:55:18;;;;;;;7.00;4.55;;;;;;;;;;4943593;28;20204;-69
2023/10/12 11:57:44;;;;;;;8.23;4.40;;;;;;;;;;4952189;28;20170;-69
2023/10/12 12:00:52;;;;;;;13.77;5.63;;;;;;;;;;4958902;28;20181;-70
2023/10/12 12:02:59;;;;;;;19.27;5.70;;;;;;;;;;4950469;29;20186;-69
2023/10/12 12:05:26;;;;;;;18.60;4.95;;;;;;;;;;4952585;29;20233;-69
2023/10/12 12:07:52;;;;;;;10.70;4.75;;;;;;;;;;4940296;29;20260;-69
2023/10/12 12:10:19;;;;;;;8.13;4.13;;;;;;;;;;4936271;29;20177;-69
2023/10/12 12:12:44;;;;;;;5.93;4.30;;;;;;;;;;4953027;28;20174;-70
2023/10/12 12:15:09;;;;;;;14.10;5.35;;;;;;;;;;4938452;28;20181;-70
2023/10/12 12:17:35;;;;;;;24.38;5.68;;;;;;;;;;4958055;28;20177;-69
2023/10/12 12:20:00;;;;;;;10.85;4.60;;;;;;;;;;4952298;29;20170;-69
2023/10/12 12:22:36;;;;;;;9.65;4.97;;;;;;;;;;4933151;29;20177;-70
2023/10/12 12:25:14;;;;;;;7.05;4.72;;;;;;;;;;4934522;29;20189;-70
2023/10/12 12:27:48;;;;;;;9.25;5.45;;;;;;;;;;4952166;29;20176;-69
2023/10/12 12:30:22;;;;;;;6.50;3.92;;;;;;;;;;4936863;29;20196;-69
2023/10/12 12:32:49;;;;;;;26.95;7.25;;;;;;;;;;4935933;29;20232;-69
2023/10/12 12:35:15;;;;;;;10.98;5.05;;;;;;;;;;4953160;29;20228;-69
2023/10/12 12:37:40;;;;;;;7.93;4.22;;;;;;;;;;4951339;28;20182;-70
2023/10/12 12:42:49;;;;;;;10.18;5.00;;;;;;;;;;4948560;29;20185;-69
2023/10/12 12:45:15;;;;;;;6.88;4.80;;;;;;;;;;4952680;28;20174;-69
2023/10/12 12:47:40;;;;;;;8.40;4.32;;;;;;;;;;4952528;29;20173;-70
2023/10/12 12:50:06;;;;;;;21.52;6.97;;;;;;;;;;4936930;29;20236;-69
2023/10/12 12:52:31;;;;;;;9.03;4.87;;;;;;;;;;4935058;29;20177;-69
2023/10/12 12:54:57;;;;;;;7.30;4.23;;;;;;;;;;4937299;28;20174;-69
2023/10/12 12:57:23;;;;;;;9.33;4.30;;;;;;;;;;4934891;29;20375;-69
2023/10/12 12:59:48;;;;;;;9.88;5.03;;;;;;;;;;4931384;29;20186;-69
2023/10/12 13:02:14;;;;;;;9.27;4.80;;;;;;;;;;4935466;28;20216;-69
2023/10/12 13:04:39;;;;;;;6.38;4.28;;;;;;;;;;4935480;29;20188;-70
2023/10/12 13:07:08;;;;;;;8.07;5.40;;;;;;;;;;4934944;29;20216;-69
2023/10/12 13:09:36;;;;;;;5.85;4.70;;;;;;;;;;4951767;29;20213;-69
2023/10/12 13:12:01;;;;;;;18.20;5.38;;;;;;;;;;4936223;29;20207;-69
2023/10/12 13:14:28;;;;;;;6.15;4.50;;;;;;;;;;4951293;28;20310;-69
2023/10/12 13:16:54;;;;;;;6.37;4.53;;;;;;;;;;4955833;28;20181;-69
2023/10/12 13:19:20;;;;;;;6.75;4.45;;;;;;;;;;4935190;29;20177;-69
2023/10/12 13:21:45;;;;;;;7.88;4.45;;;;;;;;;;4949135;28;20189;-69
2023/10/12 13:24:12;;;;;;;8.13;4.63;;;;;;;;;;4945622;29;20181;-69
2023/10/12 13:26:43;;;;;;;7.78;4.07;;;;;;;;;;4951047;28;20238;-69
2023/10/12 13:29:08;;;;;;;10.52;5.75;;;;;;;;;;4952524;28;20201;-69
2023/10/12 13:31:35;;;;;;;7.22;4.22;;;;;;;;;;4936305;29;20185;-69
2023/10/12 13:34:02;;;;;;;10.02;4.55;;;;;;;;;;4934651;29;20252;-70
2023/10/12 13:36:34;;;;;;;7.40;4.93;;;;;;;;;;4949045;29;20201;-69
2023/10/12 13:39:03;;;;;;;8.55;5.20;;;;;;;;;;4948293;28;20210;-69
2023/10/12 13:41:29;;;;;;;7.20;4.70;;;;;;;;;;4948394;29;20177;-69
2023/10/12 13:43:55;;;;;;;6.55;4.55;;;;;;;;;;4950607;28;20190;-69
2023/10/12 13:46:20;;;;;;;10.68;4.90;;;;;;;;;;4946289;28;20181;-70
2023/10/12 13:48:48;;;;;;;6.53;5.00;;;;;;;;;;4934664;28;20201;-70
2023/10/12 13:51:20;;;;;;;9.75;4.57;;;;;;;;;;4934150;29;20213;-69
2023/10/12 13:53:46;;;;;;;5.55;4.60;;;;;;;;;;4949386;28;20181;-69
2023/10/12 13:56:12;;;;;;;5.55;4.43;;;;;;;;;;4942485;28;20196;-69
2023/10/12 13:58:40;;;;;;;8.55;4.90;;;;;;;;;;4948537;28;20185;-69
2023/10/12 14:01:14;;;;;;;6.63;4.60;;;;;;;;;;4934460;29;20181;-70
2023/10/12 14:03:41;;;;;;;5.38;3.90;;;;;;;;;;4946547;28;20193;-69
2023/10/12 14:06:06;;;;;;;7.32;4.85;;;;;;;;;;4949068;28;20385;-69
2023/10/12 14:08:32;;;;;;;6.10;4.93;;;;;;;;;;4947822;28;20258;-70
2023/10/12 14:11:03;;;;;;;12.68;5.03;;;;;;;;;;4937917;29;20193;-69
2023/10/12 14:13:28;;;;;;;11.38;4.90;;;;;;;;;;4949289;29;20196;-70
2023/10/12 14:15:53;;;;;;;15.82;4.85;;;;;;;;;;4947903;28;20177;-70
2023/10/12 14:18:18;;;;;;;11.25;4.55;;;;;;;;;;4947351;28;20184;-69
2023/10/12 14:20:44;;;;;;;5.40;4.32;;;;;;;;;;4929486;29;20189;-68
2023/10/12 14:23:10;;;;;;;8.13;5.07;;;;;;;;;;4932216;29;20190;-73
2023/10/12 14:25:35;;;;;;;7.32;4.13;;;;;;;;;;4947758;28;20184;-73
2023/10/12 14:28:03;;;;;;;20.88;5.45;;;;;;;;;;4950671;28;20201;-73
2023/10/12 14:30:28;;;;;;;10.95;5.15;;;;;;;;;;4951476;28;20228;-72
2023/10/12 14:32:57;;;;;;;24.95;7.18;;;;;;;;;;4932887;29;20177;-72
2023/10/12 14:35:27;;;;;;;9.88;5.07;;;;;;;;;;4928734;28;20185;-72
2023/10/12 14:37:55;;;;;;;9.95;4.60;;;;;;;;;;4933471;29;20236;-72
2023/10/12 14:40:21;;;;;;;10.13;5.85;;;;;;;;;;4954501;28;20405;-72
2023/10/12 14:42:46;;;;;;;4.50;3.58;;;;;;;;;;4946908;29;20184;-72
2023/10/12 14:45:15;;;;;;;8.73;4.78;;;;;;;;;;4950885;28;20186;-72
2023/10/12 14:47:41;;;;;;;7.47;4.20;;;;;;;;;;4935194;29;20264;-72
2023/10/12 14:50:16;;;;;;;10.13;4.22;;;;;;;;;;4948112;29;20224;-72
2023/10/12 14:52:44;;;;;;;7.85;3.80;;;;;;;;;;4947107;28;20236;-73
2023/10/12 14:55:13;;;;;;;6.78;4.50;;;;;;;;;;4949637;28;20174;-73
2023/10/12 14:57:38;;;;;;;8.30;4.07;;;;;;;;;;4951329;29;20205;-73
2023/10/12 15:00:09;;;;;;;8.93;4.65;;;;;;;;;;4950782;29;20255;-72
2023/10/12 15:02:35;;;;;;;5.43;3.85;;;;;;;;;;4949570;28;20201;-72
2023/10/12 15:05:00;;;;;;;10.02;4.60;;;;;;;;;;4950654;28;20321;-72
2023/10/12 15:07:25;;;;;;;9.38;4.90;;;;;;;;;;4934220;29;20221;-72
2023/10/12 15:09:51;;;;;;;6.82;4.15;;;;;;;;;;4956485;28;20205;-72
2023/10/12 15:12:16;;;;;;;6.70;4.25;;;;;;;;;;4953147;28;21603;-72
2023/10/12 15:14:42;;;;;;;12.85;3.58;;;;;;;;;;4936185;29;20216;-72
2023/10/12 15:17:07;;;;;;;7.20;4.40;;;;;;;;;;4953432;28;20236;-72
2023/10/12 15:19:33;;;;;;;10.05;4.25;;;;;;;;;;4957632;28;20249;-72
2023/10/12 15:21:59;;;;;;;5.20;3.83;;;;;;;;;;4954815;28;20185;-72
2023/10/12 15:24:26;;;;;;;5.00;4.03;;;;;;;;;;4953641;28;20184;-72
2023/10/12 15:26:51;;;;;;;4.97;4.47;;;;;;;;;;4953682;28;20181;-72
2023/10/12 15:29:16;;;;;;;6.55;3.70;;;;;;;;;;4948443;28;20201;-72
2023/10/12 15:31:42;;;;;;;10.23;3.35;;;;;;;;;;4949206;29;20186;-72
2023/10/12 15:34:08;;;;;;;11.00;4.32;;;;;;;;;;4950549;28;20189;-72
2023/10/12 15:36:34;;;;;;;9.70;4.07;;;;;;;;;;4955039;28;20178;-71
2023/10/12 15:39:14;;;;;;;7.72;3.63;;;;;;;;;;4937194;29;20221;-72
2023/10/12 15:41:39;;;;;;;5.35;3.75;;;;;;;;;;4953173;29;20188;-72
2023/10/12 15:44:05;;;;;;;8.60;4.10;;;;;;;;;;4954562;28;20185;-72
2023/10/12 15:46:30;;;;;;;5.72;4.45;;;;;;;;;;4954144;29;20185;-71
2023/10/12 15:48:57;;;;;;;8.07;4.68;;;;;;;;;;4928627;28;20197;-72
2023/10/12 15:51:22;;;;;;;7.65;4.32;;;;;;;;;;4954320;29;20181;-72
2023/10/12 15:53:48;;;;;;;7.88;4.22;;;;;;;;;;4936117;29;20173;-72
2023/10/12 15:56:15;;;;;;;9.45;3.78;;;;;;;;;;4936267;29;20201;-73
2023/10/12 15:58:41;;;;;;;10.23;4.25;;;;;;;;;;4953489;28;20193;-73
2023/10/12 16:01:06;;;;;;;5.60;3.72;;;;;;;;;;4935331;29;20181;-72
2023/10/12 16:03:31;;;;;;;12.20;4.03;;;;;;;;;;4955484;28;20269;-72
2023/10/12 16:05:56;;;;;;;9.73;4.15;;;;;;;;;;4951729;28;20178;-73
2023/10/12 16:08:22;;;;;;;11.65;4.03;;;;;;;;;;4940268;29;20320;-73
2023/10/12 16:10:48;;;;;;;7.27;4.07;;;;;;;;;;4953362;28;20177;-72
2023/10/12 16:13:14;;;;;;;8.70;3.87;;;;;;;;;;4953910;28;20191;-71
2023/10/12 16:15:39;;;;;;;5.95;3.88;;;;;;;;;;4950081;28;20181;-72
2023/10/12 16:18:07;;;;;;;4.97;3.53;;;;;;;;;;4953625;28;20210;-72
2023/10/12 16:20:33;;;;;;;5.97;3.50;;;;;;;;;;4952014;28;20184;-72
2023/10/12 16:22:58;;;;;;;6.93;3.77;;;;;;;;;;4951888;29;20174;-72
2023/10/12 16:25:23;;;;;;;8.35;3.92;;;;;;;;;;4950982;29;20180;-72
2023/10/12 16:27:48;;;;;;;8.07;3.97;;;;;;;;;;4936890;29;20189;-72
2023/10/12 16:30:18;;;;;;;7.72;3.90;;;;;;;;;;4952323;29;20306;-71
2023/10/12 16:32:44;;;;;;;6.57;3.40;;;;;;;;;;4951244;29;20177;-72
2023/10/12 16:35:10;;;;;;;8.52;4.70;;;;;;;;;;4934330;29;20188;-72
2023/10/12 16:37:35;;;;;;;4.63;3.30;;;;;;;;;;4951670;29;20193;-72
2023/10/12 16:40:01;;;;;;;6.60;4.23;;;;;;;;;;4935239;29;20201;-72
2023/10/12 16:42:26;;;;;;;6.17;3.27;;;;;;;;;;4951448;29;20178;-71
2023/10/12 16:44:52;;;;;;;5.33;3.60;;;;;;;;;;4953687;29;20180;-72
2023/10/12 16:47:17;;;;;;;4.77;2.90;;;;;;;;;;4953234;29;20181;-72
2023/10/12 16:49:44;;;;;;;8.88;3.47;;;;;;;;;;4942498;28;20212;-73
2023/10/12 16:52:11;;;;;;;7.22;3.63;;;;;;;;;;4952032;28;20185;-72
2023/10/12 16:54:36;;;;;;;7.77;3.50;;;;;;;;;;4953170;29;20188;-71
2023/10/12 16:57:01;;;;;;;4.03;3.20;;;;;;;;;;4936145;29;20180;-71
2023/10/12 16:59:27;;;;;;;7.57;3.80;;;;;;;;;;4952331;28;20181;-73
2023/10/12 17:01:55;;;;;;;8.63;3.53;;;;;;;;;;4940092;28;20280;-72
2023/10/12 17:04:45;;;;;;;5.10;3.60;;;;;;;;;;4952152;28;20186;-72